Weather History for Joliet, IL

Change the Weather History Date:

Saturday, October 27, 2012

  Actual Average (KLOT) Record (KLOT)
Temperature  
Mean Temperature 40 °F 49 °F  
Max Temperature 48 °F 58 °F 77 °F (2014)
Min Temperature 32 °F 40 °F 26 °F (1997)
Degree Days  
Heating Degree Days 26 16  
Month to date heating degree days 320  
Since 1 July heating degree days 419  
Cooling Degree Days 0 0  
Month to date cooling degree days 12  
Year to date cooling degree days 859  
Moisture  
Dew Point 28 °F    
Average Humidity 65    
Maximum Humidity 82    
Minimum Humidity 44    
Precipitation  
Precipitation 0.00 in 0.12 in 0.50 in (1998)
Month to date precipitation 3.01  
Year to date precipitation 33.96  
Snow  
Snow 0.00 in 0.00 in - ()
Month to date snowfall 0.0  
Since 1 July snowfall 0.0  
Since 1 September snowfall 0.0  
Snow Depth -    
Sea Level Pressure  
Sea Level Pressure 30.28 in    
Wind  
Wind Speed 5 mph (NNW)    
Max Wind Speed 12 mph    
Max Gust Speed 17 mph    
Visibility 10 miles    
Events      
T = Trace of Precipitation, MM = Missing Value Source: NWS Daily Summary

Daily Weather History Graph

Daily Weather History Graph

Search for Another Location

Airport:

Trip Planner

Search our weather history database for the weather conditions in past years. The results will help you decide how hot, cold, wet, or windy it might be!

Date:

Astronomy

Oct. 27, 2012 Rise Set
Actual Time 7:19 AM CDT 5:53 PM CDT
Civil Twilight 6:50 AM CDT 6:21 PM CDT
Nautical Twilight 6:18 AM CDT 6:54 PM CDT
Astronomical Twilight 5:45 AM CDT 7:26 PM CDT
Moon 4:40 PM CDT (10/27) 5:12 AM CDT (10/27)
Length of Visible Light 11h 31m
Length of Day
10h 34m
Waxing Gibbous, 96% of the Moon is Illuminated
Oct 27
Waxing Gibbous
Oct 29
Full
Nov 6
Last Quarter
Nov 13
New
Nov 20
First Quarter

Hourly Weather History & Observations

Time (CDT) Temp. Windchill Dew Point Humidity Pressure Visibility Wind Dir Wind Speed Gust Speed Precip Events Conditions
12:15 AM 37.9 °F - 31.1 °F 76% 30.30 in 10.0 mi Calm Calm - N/A   Clear
12:35 AM 37.4 °F - 30.9 °F 77% 30.30 in 10.0 mi Calm Calm - N/A   Clear
12:55 AM 36.7 °F 32.9 °F 30.9 °F 80% 30.29 in 10.0 mi NW 4.6 mph - N/A   Clear
1:15 AM 36.1 °F 33.5 °F 30.6 °F 80% 30.30 in 10.0 mi NW 3.5 mph - N/A   Clear
1:35 AM 35.6 °F 32.8 °F 30.2 °F 81% 30.29 in 10.0 mi NW 3.5 mph - N/A   Clear
1:55 AM 35.8 °F 30.9 °F 30.2 °F 80% 30.29 in 10.0 mi NW 5.8 mph - N/A   Clear
2:15 AM 34.9 °F 29.9 °F 29.8 °F 82% 30.29 in 10.0 mi NNW 5.8 mph - N/A   Clear
2:35 AM 35.6 °F 30.7 °F 29.8 °F 80% 30.29 in 10.0 mi NW 5.8 mph - N/A   Clear
2:55 AM 35.6 °F 29.9 °F 29.5 °F 78% 30.29 in 10.0 mi NW 6.9 mph - N/A   Clear
3:15 AM 35.6 °F 29.2 °F 29.1 °F 77% 30.28 in 10.0 mi NNW 8.1 mph - N/A   Clear
3:35 AM 35.6 °F 29.9 °F 28.9 °F 77% 30.29 in 10.0 mi NNW 6.9 mph - N/A   Clear
3:55 AM 35.4 °F 29.0 °F 28.4 °F 76% 30.29 in 10.0 mi NNW 8.1 mph - N/A   Clear
4:15 AM 35.4 °F 29.7 °F 27.9 °F 74% 30.29 in 10.0 mi NNW 6.9 mph - N/A   Clear
4:35 AM 35.6 °F 29.2 °F 27.1 °F 71% 30.29 in 10.0 mi NNW 8.1 mph - N/A   Clear
4:55 AM 35.4 °F 29.7 °F 26.4 °F 70% 30.29 in 10.0 mi NNW 6.9 mph - N/A   Clear
5:15 AM 34.7 °F 28.8 °F 25.7 °F 70% 30.29 in 10.0 mi North 6.9 mph - N/A   Clear
5:35 AM 35.1 °F 30.1 °F 25.7 °F 69% 30.29 in 10.0 mi NNW 5.8 mph - N/A   Clear
5:55 AM 33.8 °F 28.6 °F 26.1 °F 73% 30.30 in 10.0 mi NW 5.8 mph - N/A   Clear
6:15 AM 33.3 °F 28.9 °F 26.4 °F 76% 30.30 in 10.0 mi NNW 4.6 mph - N/A   Clear
6:35 AM 33.4 °F 30.4 °F 26.6 °F 76% 30.31 in 10.0 mi NW 3.5 mph - N/A   Clear
6:55 AM 33.4 °F 29.1 °F 26.4 °F 75% 30.31 in 10.0 mi NW 4.6 mph - N/A   Clear
7:15 AM 32.9 °F 27.5 °F 26.6 °F 78% 30.31 in 10.0 mi NW 5.8 mph - N/A   Clear
7:35 AM 32.0 °F 27.5 °F 26.6 °F 80% 30.32 in 10.0 mi NW 4.6 mph - N/A   Clear
7:55 AM 32.9 °F 28.5 °F 27.3 °F 80% 30.31 in 10.0 mi NNW 4.6 mph - N/A   Clear
8:15 AM 33.8 °F 28.6 °F 28.0 °F 79% 30.31 in 10.0 mi NNW 5.8 mph - N/A   Clear
8:35 AM 35.6 °F 29.2 °F 28.2 °F 75% 30.31 in 10.0 mi NNW 8.1 mph - N/A   Clear
8:55 AM 37.4 °F 31.4 °F 28.0 °F 69% 30.31 in 10.0 mi NNW 8.1 mph - N/A   Clear
9:15 AM 38.7 °F 31.8 °F 28.2 °F 66% 30.31 in 10.0 mi NW 10.4 mph - N/A   Clear
9:35 AM 39.6 °F 32.5 °F 28.4 °F 64% 30.32 in 10.0 mi NNW 11.5 mph - N/A   Clear
9:55 AM 40.8 °F 34.5 °F 29.3 °F 64% 30.31 in 10.0 mi NNW 10.4 mph - N/A   Clear
10:15 AM 41.2 °F 36.0 °F 29.5 °F 63% 30.31 in 10.0 mi NNW 8.1 mph 17.3 mph N/A   Clear
10:35 AM 42.1 °F 38.4 °F 29.3 °F 61% 30.31 in 10.0 mi NNW 5.8 mph - N/A   Clear
10:55 AM 42.8 °F 37.5 °F 28.6 °F 57% 30.31 in 10.0 mi NW 9.2 mph - N/A   Clear
11:15 AM 43.7 °F 39.1 °F 29.1 °F 57% 30.31 in 10.0 mi NNW 8.1 mph - N/A   Clear
11:35 AM 44.4 °F 40.0 °F 29.1 °F 55% 30.30 in 10.0 mi NNW 8.1 mph - N/A   Clear
11:55 AM 44.6 °F 40.7 °F 28.4 °F 53% 30.29 in 10.0 mi NW 6.9 mph - N/A   Clear
12:15 PM 45.3 °F 41.1 °F 28.9 °F 53% 30.28 in 10.0 mi NW 8.1 mph - N/A   Clear
12:35 PM 46.2 °F 41.7 °F 29.1 °F 51% 30.27 in 10.0 mi North 9.2 mph - N/A   Clear
12:55 PM 46.2 °F 43.3 °F 28.8 °F 51% 30.27 in 10.0 mi NNE 5.8 mph - N/A   Clear
1:15 PM 46.4 °F 41.9 °F 27.9 °F 48% 30.26 in 10.0 mi NNW 9.2 mph - N/A   Clear
1:35 PM 46.9 °F - 28.0 °F 48% 30.25 in 10.0 mi NNE 9.2 mph - N/A   Clear
1:55 PM 47.7 °F - 28.2 °F 47% 30.24 in 10.0 mi WNW 5.8 mph - N/A   Clear
2:15 PM 47.7 °F - 27.9 °F 46% 30.24 in 10.0 mi WNW 5.8 mph - N/A   Clear
2:35 PM 47.3 °F - 27.0 °F 45% 30.24 in 10.0 mi NNW 8.1 mph - N/A   Clear
2:55 PM 47.7 °F - 27.5 °F 46% 30.24 in 10.0 mi WNW 6.9 mph - N/A   Clear
3:15 PM 47.3 °F - 26.4 °F 44% 30.24 in 10.0 mi North 8.1 mph - N/A   Clear
3:35 PM 46.9 °F - 27.3 °F 46% 30.23 in 10.0 mi NNW 11.5 mph 17.3 mph N/A   Clear
3:55 PM 46.8 °F - 27.1 °F 46% 30.23 in 10.0 mi NNW 11.5 mph 17.3 mph N/A   Clear
4:15 PM 46.2 °F 40.8 °F 26.6 °F 46% 30.23 in 10.0 mi North 11.5 mph - N/A   Clear
4:35 PM 45.9 °F 41.2 °F 26.2 °F 46% 30.23 in 10.0 mi NNW 9.2 mph - N/A   Clear
4:55 PM 45.5 °F 41.3 °F 26.2 °F 47% 30.24 in 10.0 mi North 8.1 mph - N/A   Clear
5:15 PM 44.2 °F 40.3 °F 25.9 °F 49% 30.25 in 10.0 mi NNW 6.9 mph - N/A   Clear
5:35 PM 43.3 °F 38.6 °F 26.4 °F 51% 30.24 in 10.0 mi NNW 8.1 mph - N/A   Clear
5:55 PM 42.8 °F 38.6 °F 26.8 °F 53% 30.25 in 10.0 mi NNE 6.9 mph - N/A   Clear
6:15 PM 41.9 °F 38.2 °F 28.8 °F 60% 30.26 in 10.0 mi NNE 5.8 mph - N/A   Clear
6:35 PM 40.8 °F 36.2 °F 29.3 °F 64% 30.26 in 10.0 mi NNE 6.9 mph - N/A   Clear
6:55 PM 40.1 °F 36.9 °F 29.1 °F 65% 30.27 in 10.0 mi NNE 4.6 mph - N/A   Clear
7:15 PM 39.7 °F 35.6 °F 28.8 °F 65% 30.27 in 10.0 mi NNE 5.8 mph - N/A   Clear
7:35 PM 39.2 °F 35.9 °F 28.6 °F 66% 30.27 in 10.0 mi North 4.6 mph - N/A   Clear
7:55 PM 38.7 °F - 28.9 °F 68% 30.27 in 10.0 mi Calm Calm - N/A   Clear
8:15 PM 38.3 °F - 28.4 °F 68% 30.27 in 10.0 mi Calm Calm - N/A   Clear
8:35 PM 37.9 °F 34.4 °F 28.2 °F 68% 30.27 in 10.0 mi North 4.6 mph - N/A   Clear
8:55 PM 38.3 °F 35.9 °F 28.4 °F 68% 30.27 in 10.0 mi North 3.5 mph - N/A   Clear
9:15 PM 38.3 °F 35.9 °F 28.6 °F 68% 30.27 in 10.0 mi North 3.5 mph - N/A   Clear
9:35 PM 39.2 °F 35.9 °F 28.4 °F 65% 30.26 in 10.0 mi NNW 4.6 mph - N/A   Clear
9:55 PM 38.7 °F 34.3 °F 28.4 °F 67% 30.26 in 10.0 mi NW 5.8 mph - N/A   Clear
10:15 PM 38.5 °F 35.0 °F 28.6 °F 68% 30.26 in 10.0 mi NNW 4.6 mph - N/A   Clear
10:35 PM 38.7 °F 35.2 °F 28.4 °F 67% 30.27 in 10.0 mi NNW 4.6 mph - N/A   Clear
10:55 PM 38.3 °F 35.9 °F 28.2 °F 67% 30.27 in 10.0 mi NNW 3.5 mph - N/A   Clear
11:15 PM 37.9 °F 34.4 °F 27.9 °F 67% 30.27 in 10.0 mi NNW 4.6 mph - N/A   Clear
11:35 PM 37.9 °F 33.5 °F 27.9 °F 67% 30.26 in 10.0 mi NNW 5.8 mph - N/A   Scattered Clouds
11:55 PM 37.6 °F 34.0 °F 27.3 °F 66% 30.26 in 10.0 mi NW 4.6 mph - N/A   Scattered Clouds